Time;durP1;ratioP1;P1;durP2;ratioP2;P2;SDS_P1;SDS_P2;PMS_P1;PMS_P2;Temp;Humidity;BMP_temperature;BMP_pressure;BME280_temperature;BME280_humidity;BME280_pressure;Samples;Min_cycle;Max_cycle;Signal;HPM_P1;HPM_P2
2022/06/25 00:00:55;;;;;;;;;;;25.30;97.50;;;;;;5088940;28;19939;-42
2022/06/25 00:03:20;;;;;;;;;;;25.30;97.50;;;;;;5113257;28;19918;-41
2022/06/25 00:05:45;;;;;;;;;;;25.30;97.50;;;;;;5112553;28;19911;-42
2022/06/25 00:08:11;;;;;;;;;;;25.30;97.60;;;;;;5114754;28;20303;-42
2022/06/25 00:10:36;;;;;;;;;;;25.20;97.50;;;;;;5108091;28;20343;-41
2022/06/25 00:13:02;;;;;;;;;;;25.20;97.60;;;;;;5107707;28;19916;-43
2022/06/25 00:15:27;;;;;;;;;;;25.30;97.50;;;;;;5112273;28;19911;-40
2022/06/25 00:17:53;;;;;;;;;;;25.30;97.60;;;;;;5111485;28;19916;-40
2022/06/25 00:20:18;;;;;;;;;;;25.30;97.50;;;;;;5112363;28;19912;-40
2022/06/25 00:22:44;;;;;;;;;;;25.30;97.60;;;;;;5108942;28;19912;-40
2022/06/25 00:25:09;;;;;;;;;;;25.30;97.60;;;;;;5113046;28;19916;-41
2022/06/25 00:27:35;;;;;;;;;;;25.30;97.60;;;;;;5109830;28;19912;-42
2022/06/25 00:30:01;;;;;;;;;;;25.20;97.60;;;;;;5112126;28;19955;-41
2022/06/25 00:32:26;;;;;;;;;;;25.30;97.70;;;;;;5093749;28;19919;-49
2022/06/25 00:34:52;;;;;;;;;;;25.30;97.60;;;;;;5108561;28;19965;-43
2022/06/25 00:37:17;;;;;;;;;;;25.20;97.60;;;;;;5111670;28;19923;-42
2022/06/25 00:39:44;;;;;;;;;;;25.30;97.70;;;;;;5114941;28;19927;-41
2022/06/25 00:42:10;;;;;;;;;;;25.20;97.60;;;;;;5112688;28;19916;-41
2022/06/25 00:44:36;;;;;;;;;;;25.30;97.60;;;;;;5115674;28;19912;-41
2022/06/25 00:47:02;;;;;;;;;;;25.30;97.70;;;;;;5116020;28;19912;-41
2022/06/25 00:49:28;;;;;;;;;;;25.20;97.70;;;;;;5101806;28;19912;-41
2022/06/25 00:51:56;;;;;;;;;;;25.20;97.70;;;;;;5091653;28;19953;-42
2022/06/25 00:54:24;;;;;;;;;;;25.20;97.70;;;;;;5103216;28;19973;-41
2022/06/25 00:56:51;;;;;;;;;;;25.20;97.70;;;;;;5099795;28;19967;-41
2022/06/25 00:59:23;;;;;;;;;;;25.20;97.70;;;;;;5097295;28;19908;-43
2022/06/25 01:01:48;;;;;;;;;;;25.30;97.70;;;;;;5103250;28;19919;-41
2022/06/25 01:04:14;;;;;;;;;;;25.20;97.70;;;;;;5091052;28;19916;-45
2022/06/25 01:06:40;;;;;;;;;;;25.30;97.80;;;;;;5096133;28;19912;-43
2022/06/25 01:09:05;;;;;;;;;;;25.20;97.80;;;;;;5095760;28;19916;-41
2022/06/25 01:11:31;;;;;;;;;;;25.20;97.70;;;;;;5095663;28;19915;-43
2022/06/25 01:13:56;;;;;;;;;;;25.20;97.80;;;;;;5095949;28;20385;-41
2022/06/25 01:16:22;;;;;;;;;;;25.20;97.80;;;;;;5077801;28;19919;-41
2022/06/25 01:18:48;;;;;;;;;;;25.20;97.90;;;;;;5078921;28;20415;-42
2022/06/25 01:21:14;;;;;;;;;;;25.30;97.90;;;;;;5097042;28;20378;-41
2022/06/25 01:23:40;;;;;;;;;;;25.30;97.80;;;;;;5096917;28;19908;-41
2022/06/25 01:26:05;;;;;;;;;;;25.20;97.90;;;;;;5097539;28;20002;-43
2022/06/25 01:28:31;;;;;;;;;;;25.20;97.90;;;;;;5097141;28;19915;-42
2022/06/25 01:30:56;;;;;;;;;;;25.20;97.90;;;;;;5096148;28;19916;-41
2022/06/25 01:33:22;;;;;;;;;;;25.20;97.90;;;;;;5095671;28;19908;-42
2022/06/25 01:35:47;;;;;;;;;;;25.20;97.90;;;;;;5094916;28;20361;-41
2022/06/25 01:38:12;;;;;;;;;;;25.20;97.90;;;;;;5095134;28;19923;-40
2022/06/25 01:40:38;;;;;;;;;;;25.20;97.90;;;;;;5094545;28;19935;-43
2022/06/25 01:43:04;;;;;;;;;;;25.20;98.00;;;;;;5095409;28;19970;-41
2022/06/25 01:45:31;;;;;;;;;;;25.20;97.90;;;;;;5095030;28;19946;-41
2022/06/25 01:47:57;;;;;;;;;;;25.20;97.90;;;;;;5089537;28;19908;-41
2022/06/25 01:50:23;;;;;;;;;;;25.20;97.90;;;;;;5091858;28;20275;-41
2022/06/25 01:52:48;;;;;;;;;;;25.20;97.90;;;;;;5095052;28;19908;-42
2022/06/25 01:55:15;;;;;;;;;;;25.20;97.90;;;;;;5094837;28;19908;-41
2022/06/25 01:57:40;;;;;;;;;;;25.20;98.00;;;;;;5076874;28;20355;-41
2022/06/25 02:00:07;;;;;;;;;;;25.20;98.00;;;;;;5095876;28;19955;-41
2022/06/25 02:02:33;;;;;;;;;;;25.10;97.90;;;;;;5094969;28;19919;-41
2022/06/25 02:04:58;;;;;;;;;;;25.20;98.00;;;;;;5090934;28;19912;-41
2022/06/25 02:07:24;;;;;;;;;;;25.20;98.00;;;;;;5096271;28;19908;-41
2022/06/25 02:09:49;;;;;;;;;;;25.20;98.00;;;;;;5095595;28;20011;-41
2022/06/25 02:12:15;;;;;;;;;;;25.20;98.00;;;;;;5085721;28;19919;-41
2022/06/25 02:14:40;;;;;;;;;;;25.10;97.90;;;;;;5093265;28;19955;-42
2022/06/25 02:17:06;;;;;;;;;;;25.10;98.00;;;;;;5098297;28;19916;-41
2022/06/25 02:19:31;;;;;;;;;;;25.10;96.20;;;;;;5095981;28;20007;-41
2022/06/25 02:21:57;;;;;;;;;;;25.10;97.40;;;;;;5082997;28;20332;-42
2022/06/25 02:24:22;;;;;;;;;;;25.10;97.60;;;;;;5103929;28;19916;-42
2022/06/25 02:26:47;;;;;;;;;;;25.20;97.70;;;;;;5095929;28;19908;-41
2022/06/25 02:29:13;;;;;;;;;;;25.20;97.70;;;;;;5078600;28;19911;-41
2022/06/25 02:31:38;;;;;;;;;;;25.10;97.80;;;;;;5088922;28;19951;-41
2022/06/25 02:34:04;;;;;;;;;;;25.10;97.80;;;;;;5094297;28;19995;-41
2022/06/25 02:36:29;;;;;;;;;;;25.10;97.80;;;;;;5094938;28;19908;-43
2022/06/25 02:38:55;;;;;;;;;;;25.20;97.90;;;;;;5076090;28;19912;-43
2022/06/25 02:41:20;;;;;;;;;;;25.10;97.80;;;;;;5094429;28;19914;-43
2022/06/25 02:43:46;;;;;;;;;;;25.10;97.90;;;;;;5112629;28;19912;-42
2022/06/25 02:46:11;;;;;;;;;;;25.10;97.90;;;;;;5113888;28;19908;-42
2022/06/25 02:48:37;;;;;;;;;;;25.20;97.90;;;;;;5103955;28;19961;-42
2022/06/25 02:51:02;;;;;;;;;;;25.10;97.90;;;;;;5095479;28;19908;-42
2022/06/25 02:53:27;;;;;;;;;;;25.10;97.90;;;;;;5095444;28;20410;-43
2022/06/25 02:58:56;;;;;;;;;;;25.20;97.90;;;;;;5086014;28;20353;-42
2022/06/25 03:01:25;;;;;;;;;;;25.10;97.90;;;;;;5101886;28;19965;-39
2022/06/25 03:03:50;;;;;;;;;;;25.10;97.90;;;;;;5113542;28;20381;-53
2022/06/25 03:06:16;;;;;;;;;;;25.10;97.90;;;;;;5107706;28;19908;-41
2022/06/25 03:08:42;;;;;;;;;;;25.10;97.80;;;;;;5108558;28;19912;-41
2022/06/25 03:11:07;;;;;;;;;;;25.10;97.80;;;;;;5105498;28;20365;-41
2022/06/25 03:13:35;;;;;;;;;;;25.10;97.80;;;;;;5102635;28;19954;-40
2022/06/25 03:16:01;;;;;;;;;;;25.10;97.90;;;;;;5107908;28;20259;-40
2022/06/25 03:18:27;;;;;;;;;;;25.10;97.90;;;;;;5113032;28;19912;-41
2022/06/25 03:20:52;;;;;;;;;;;25.10;97.90;;;;;;5095556;28;19912;-41
2022/06/25 03:23:19;;;;;;;;;;;25.10;97.90;;;;;;5102376;28;20282;-41
2022/06/25 03:25:45;;;;;;;;;;;25.10;97.90;;;;;;5114168;28;20003;-41
2022/06/25 03:28:11;;;;;;;;;;;25.10;97.80;;;;;;5100288;28;19947;-41
2022/06/25 03:30:36;;;;;;;;;;;25.10;97.90;;;;;;5108527;28;19959;-43
2022/06/25 03:33:02;;;;;;;;;;;25.00;97.80;;;;;;5105826;28;20007;-40
2022/06/25 03:35:27;;;;;;;;;;;25.10;97.90;;;;;;5103276;28;19912;-41
2022/06/25 03:37:53;;;;;;;;;;;25.10;97.90;;;;;;5091491;28;19924;-42
2022/06/25 03:40:18;;;;;;;;;;;25.00;97.90;;;;;;5096780;28;19912;-43
2022/06/25 03:42:44;;;;;;;;;;;25.10;97.90;;;;;;5105346;28;19998;-43
2022/06/25 03:45:09;;;;;;;;;;;25.10;97.90;;;;;;5094924;28;19912;-41
2022/06/25 03:47:35;;;;;;;;;;;25.10;97.90;;;;;;5109507;28;19912;-41
2022/06/25 03:50:01;;;;;;;;;;;25.10;97.90;;;;;;5111339;28;20290;-41
2022/06/25 03:52:27;;;;;;;;;;;25.10;97.90;;;;;;5114869;28;19912;-41
2022/06/25 03:54:52;;;;;;;;;;;25.10;98.00;;;;;;5100348;28;19912;-40
2022/06/25 03:57:18;;;;;;;;;;;25.10;97.90;;;;;;5109767;28;19927;-41
2022/06/25 03:59:43;;;;;;;;;;;25.10;97.90;;;;;;5108754;28;20282;-40
2022/06/25 04:02:08;;;;;;;;;;;25.10;97.90;;;;;;5110928;28;20347;-40
2022/06/25 04:04:34;;;;;;;;;;;25.10;97.90;;;;;;5111802;28;19919;-40
2022/06/25 04:06:59;;;;;;;;;;;25.10;98.00;;;;;;5107116;28;19971;-41
2022/06/25 04:09:25;;;;;;;;;;;25.10;97.90;;;;;;5103270;28;20366;-40
2022/06/25 04:11:50;;;;;;;;;;;25.10;97.90;;;;;;5108858;28;19936;-40
2022/06/25 04:14:16;;;;;;;;;;;25.10;97.90;;;;;;5088806;28;19912;-40
2022/06/25 04:16:41;;;;;;;;;;;25.10;97.90;;;;;;5086873;28;20006;-41
2022/06/25 04:19:07;;;;;;;;;;;25.10;97.90;;;;;;5108877;28;19920;-41
2022/06/25 04:21:32;;;;;;;;;;;25.10;97.90;;;;;;5114224;28;19976;-40
2022/06/25 04:23:58;;;;;;;;;;;25.10;98.00;;;;;;5105993;28;19912;-40
2022/06/25 04:26:23;;;;;;;;;;;25.10;98.00;;;;;;5103779;28;20404;-40
2022/06/25 04:29:04;;;;;;;;;;;25.00;97.90;;;;;;5105583;28;20447;-45
2022/06/25 04:31:33;;;;;;;;;;;25.10;97.90;;;;;;5097320;28;20279;-40
2022/06/25 04:33:59;;;;;;;;;;;25.10;98.00;;;;;;5110854;28;19911;-40
2022/06/25 04:36:25;;;;;;;;;;;25.10;97.90;;;;;;5114248;28;20318;-40
2022/06/25 04:38:50;;;;;;;;;;;25.10;97.90;;;;;;5102137;28;19916;-40
2022/06/25 04:41:16;;;;;;;;;;;25.00;97.90;;;;;;5102735;28;20346;-42
2022/06/25 04:43:42;;;;;;;;;;;25.00;97.90;;;;;;5098683;28;19957;-40
2022/06/25 04:46:07;;;;;;;;;;;25.10;97.90;;;;;;5112432;28;20380;-40
2022/06/25 04:48:33;;;;;;;;;;;25.00;98.00;;;;;;5107514;28;19920;-40
2022/06/25 04:50:58;;;;;;;;;;;25.10;98.00;;;;;;5106523;28;19916;-40
2022/06/25 04:53:24;;;;;;;;;;;25.10;97.90;;;;;;5104398;28;19919;-41
2022/06/25 04:55:49;;;;;;;;;;;25.10;98.00;;;;;;5089867;28;20313;-41
2022/06/25 04:58:15;;;;;;;;;;;25.00;97.90;;;;;;5106414;28;19931;-40
2022/06/25 05:00:40;;;;;;;;;;;25.10;98.00;;;;;;5111739;28;19912;-41
2022/06/25 05:03:06;;;;;;;;;;;25.00;97.90;;;;;;5108758;28;19919;-41
2022/06/25 05:05:32;;;;;;;;;;;25.10;97.90;;;;;;5109787;28;19919;-41
2022/06/25 05:07:57;;;;;;;;;;;25.10;97.90;;;;;;5113629;28;19908;-41
2022/06/25 05:10:23;;;;;;;;;;;25.10;97.90;;;;;;5109522;28;19923;-44
2022/06/25 05:15:33;;;;;;;;;;;25.10;97.80;;;;;;5107194;28;20036;-41
2022/06/25 05:17:59;;;;;;;;;;;25.10;97.80;;;;;;5115882;28;19959;-41
2022/06/25 05:20:24;;;;;;;;;;;25.10;97.80;;;;;;5110868;28;20041;-41
2022/06/25 05:22:51;;;;;;;;;;;25.20;97.80;;;;;;5105822;28;19912;-44
2022/06/25 05:25:16;;;;;;;;;;;25.10;97.80;;;;;;5111498;28;19912;-42
2022/06/25 05:27:42;;;;;;;;;;;25.10;97.80;;;;;;5112196;28;19912;-41
2022/06/25 05:30:07;;;;;;;;;;;25.10;97.70;;;;;;5095968;28;19961;-43
2022/06/25 05:32:33;;;;;;;;;;;25.20;97.80;;;;;;5115444;28;19966;-41
2022/06/25 05:34:59;;;;;;;;;;;25.20;97.80;;;;;;5112655;28;20273;-41
2022/06/25 05:37:24;;;;;;;;;;;25.20;97.80;;;;;;5117061;28;19912;-40
2022/06/25 05:39:50;;;;;;;;;;;25.20;97.80;;;;;;5110212;28;19945;-42
2022/06/25 05:42:16;;;;;;;;;;;25.20;97.80;;;;;;5107186;28;20007;-40
2022/06/25 05:44:43;;;;;;;;;;;25.10;97.70;;;;;;5108958;28;19912;-41
2022/06/25 05:47:09;;;;;;;;;;;25.20;97.80;;;;;;5090918;28;20299;-40
2022/06/25 05:49:34;;;;;;;;;;;25.10;97.70;;;;;;5109118;28;19919;-40
2022/06/25 05:52:00;;;;;;;;;;;25.10;97.80;;;;;;5108292;28;19913;-41
2022/06/25 05:54:25;;;;;;;;;;;25.10;97.80;;;;;;5102327;28;19912;-41
2022/06/25 05:56:51;;;;;;;;;;;25.10;97.80;;;;;;5113184;28;19926;-44
2022/06/25 05:59:16;;;;;;;;;;;25.20;97.80;;;;;;5109469;28;19915;-40
2022/06/25 06:01:42;;;;;;;;;;;25.10;97.80;;;;;;5106413;28;19934;-41
2022/06/25 06:04:07;;;;;;;;;;;25.20;97.80;;;;;;5107452;28;19920;-40
2022/06/25 06:06:33;;;;;;;;;;;25.20;97.90;;;;;;5098645;28;20383;-40
2022/06/25 06:08:58;;;;;;;;;;;25.20;97.80;;;;;;5100981;28;19915;-41
2022/06/25 06:11:23;;;;;;;;;;;25.20;97.80;;;;;;5068906;28;19908;-41
2022/06/25 06:13:49;;;;;;;;;;;25.20;97.80;;;;;;5094169;28;20235;-41
2022/06/25 06:16:15;;;;;;;;;;;25.20;97.80;;;;;;5110982;28;19958;-40
2022/06/25 06:18:40;;;;;;;;;;;25.20;97.70;;;;;;5095584;28;19908;-42
2022/06/25 06:21:06;;;;;;;;;;;25.20;97.80;;;;;;5096001;28;20247;-41
2022/06/25 06:23:31;;;;;;;;;;;25.20;97.80;;;;;;5105619;28;20392;-41
2022/06/25 06:25:57;;;;;;;;;;;25.20;97.70;;;;;;5100914;28;19908;-41
2022/06/25 06:28:22;;;;;;;;;;;25.20;97.80;;;;;;5110512;28;19912;-41
2022/06/25 06:30:48;;;;;;;;;;;25.20;97.80;;;;;;5100582;28;20243;-41
2022/06/25 06:33:13;;;;;;;;;;;25.20;97.80;;;;;;5109948;28;19911;-41
2022/06/25 06:35:39;;;;;;;;;;;25.20;97.70;;;;;;5115902;28;20303;-41
2022/06/25 06:38:04;;;;;;;;;;;25.20;97.80;;;;;;5107907;28;19918;-46
2022/06/25 06:40:30;;;;;;;;;;;25.20;96.90;;;;;;5099482;28;19915;-42
2022/06/25 06:42:56;;;;;;;;;;;25.00;94.10;;;;;;5111823;28;20000;-43
2022/06/25 06:45:21;;;;;;;;;;;25.00;93.70;;;;;;5098914;28;20368;-42
2022/06/25 06:47:47;;;;;;;;;;;24.90;93.40;;;;;;5109828;28;19908;-41
2022/06/25 06:50:12;;;;;;;;;;;24.90;94.70;;;;;;5099381;28;20335;-45
2022/06/25 06:52:38;;;;;;;;;;;24.90;95.30;;;;;;5094397;28;20355;-40
2022/06/25 06:55:04;;;;;;;;;;;24.90;95.20;;;;;;5092949;28;19919;-40
2022/06/25 06:57:30;;;;;;;;;;;24.80;95.40;;;;;;5106805;28;20372;-41
2022/06/25 06:59:58;;;;;;;;;;;24.80;95.60;;;;;;5102616;28;20006;-41
2022/06/25 07:02:25;;;;;;;;;;;24.90;95.90;;;;;;5096578;28;19957;-41
2022/06/25 07:04:52;;;;;;;;;;;24.90;96.20;;;;;;5094930;28;19958;-40
2022/06/25 07:07:17;;;;;;;;;;;25.00;96.30;;;;;;5095493;28;19947;-41
2022/06/25 07:09:43;;;;;;;;;;;25.00;96.20;;;;;;5076809;28;20377;-40
2022/06/25 07:12:08;;;;;;;;;;;25.10;96.30;;;;;;5094642;28;19955;-41
2022/06/25 07:14:34;;;;;;;;;;;25.10;96.40;;;;;;5094582;28;19960;-41
2022/06/25 07:16:59;;;;;;;;;;;25.10;96.50;;;;;;5094451;28;19912;-41
2022/06/25 07:19:25;;;;;;;;;;;25.10;96.50;;;;;;5094637;28;19919;-41
2022/06/25 07:21:52;;;;;;;;;;;25.10;96.60;;;;;;5094456;28;19908;-39
2022/06/25 07:24:17;;;;;;;;;;;25.10;96.60;;;;;;5076358;28;19939;-40
2022/06/25 07:26:43;;;;;;;;;;;25.10;96.60;;;;;;5094560;28;19959;-40
2022/06/25 07:29:08;;;;;;;;;;;25.10;96.70;;;;;;5094166;28;19957;-40
2022/06/25 07:31:34;;;;;;;;;;;25.10;96.70;;;;;;5094112;28;19937;-39
2022/06/25 07:34:00;;;;;;;;;;;25.10;96.80;;;;;;5094382;28;19999;-40
2022/06/25 07:36:25;;;;;;;;;;;25.10;96.80;;;;;;5094387;28;19916;-41
2022/06/25 07:38:52;;;;;;;;;;;25.10;96.80;;;;;;5094040;28;19912;-40
2022/06/25 07:41:17;;;;;;;;;;;25.10;96.90;;;;;;5093787;28;19909;-40
2022/06/25 07:43:43;;;;;;;;;;;25.10;96.90;;;;;;5093892;28;19912;-40
2022/06/25 07:46:09;;;;;;;;;;;25.10;96.90;;;;;;5094193;28;19909;-41
2022/06/25 07:48:35;;;;;;;;;;;25.10;96.90;;;;;;5094105;28;20374;-40
2022/06/25 07:53:44;;;;;;;;;;;25.10;96.90;;;;;;5094000;28;20001;-41
2022/06/25 07:56:10;;;;;;;;;;;25.10;97.00;;;;;;5093682;28;19963;-40
2022/06/25 07:58:37;;;;;;;;;;;25.10;97.00;;;;;;5093154;28;20337;-40
2022/06/25 08:01:02;;;;;;;;;;;25.10;96.90;;;;;;5094076;28;19947;-40
2022/06/25 08:03:28;;;;;;;;;;;25.10;97.00;;;;;;5093949;28;19915;-39
2022/06/25 08:05:53;;;;;;;;;;;25.10;97.00;;;;;;5093528;28;20338;-42
2022/06/25 08:08:19;;;;;;;;;;;25.10;97.00;;;;;;5093909;28;19908;-39
2022/06/25 08:10:45;;;;;;;;;;;25.10;97.00;;;;;;5093915;28;19962;-39
2022/06/25 08:13:10;;;;;;;;;;;25.10;97.00;;;;;;5093944;28;19954;-40
2022/06/25 08:15:35;;;;;;;;;;;25.10;97.00;;;;;;5093679;28;20358;-39
2022/06/25 08:18:01;;;;;;;;;;;25.10;97.10;;;;;;5093554;28;19916;-40
2022/06/25 08:20:27;;;;;;;;;;;25.10;97.10;;;;;;5093686;28;20279;-40
2022/06/25 08:22:52;;;;;;;;;;;25.10;97.10;;;;;;5093594;28;19916;-40
2022/06/25 08:25:18;;;;;;;;;;;25.10;97.10;;;;;;5093488;28;19930;-40
2022/06/25 08:27:44;;;;;;;;;;;25.10;97.20;;;;;;5093845;28;20343;-40
2022/06/25 08:30:10;;;;;;;;;;;25.10;97.20;;;;;;5093403;28;19915;-40
2022/06/25 08:32:35;;;;;;;;;;;25.10;97.20;;;;;;5093338;28;19908;-40
2022/06/25 08:35:01;;;;;;;;;;;25.10;97.20;;;;;;5093794;28;19915;-40
2022/06/25 08:37:26;;;;;;;;;;;25.10;97.20;;;;;;5093424;28;19981;-41
2022/06/25 08:39:52;;;;;;;;;;;25.10;97.20;;;;;;5093445;28;19919;-40
2022/06/25 08:42:17;;;;;;;;;;;25.10;97.20;;;;;;5093589;28;19908;-40
2022/06/25 08:44:43;;;;;;;;;;;25.10;97.30;;;;;;5093332;28;19999;-40
2022/06/25 08:47:09;;;;;;;;;;;25.10;97.30;;;;;;5093961;28;19969;-41
2022/06/25 08:49:35;;;;;;;;;;;25.00;97.20;;;;;;5094650;28;19912;-41
2022/06/25 08:52:01;;;;;;;;;;;25.00;97.20;;;;;;5097579;28;19908;-41
2022/06/25 08:54:28;;;;;;;;;;;25.10;97.30;;;;;;5097180;28;19908;-40
2022/06/25 08:56:53;;;;;;;;;;;25.10;97.30;;;;;;5097081;28;20402;-40
2022/06/25 08:59:19;;;;;;;;;;;25.10;97.30;;;;;;5097011;28;19944;-40
2022/06/25 09:01:44;;;;;;;;;;;25.10;97.30;;;;;;5096818;28;19969;-40
2022/06/25 09:04:10;;;;;;;;;;;25.10;97.30;;;;;;5097311;28;20397;-40
2022/06/25 09:06:35;;;;;;;;;;;25.10;97.30;;;;;;5097020;28;19908;-40
2022/06/25 09:09:09;;;;;;;;;;;25.10;97.30;;;;;;5078815;28;20372;-40
2022/06/25 09:11:47;;;;;;;;;;;25.10;97.30;;;;;;5097054;28;19908;-40
2022/06/25 09:14:24;;;;;;;;;;;25.10;97.30;;;;;;5097231;28;19912;-40
2022/06/25 09:17:06;;;;;;;;;;;25.10;97.30;;;;;;5097078;28;20087;-41
2022/06/25 09:19:35;;;;;;;;;;;25.10;97.30;;;;;;5097034;28;19908;-40
2022/06/25 09:22:03;;;;;;;;;;;25.10;97.30;;;;;;5096690;28;20411;-40
2022/06/25 09:24:43;;;;;;;;;;;25.10;97.30;;;;;;5097418;28;19931;-40
2022/06/25 09:27:09;;;;;;;;;;;25.00;97.30;;;;;;5097094;28;19915;-40
2022/06/25 09:29:38;;;;;;;;;;;25.10;97.30;;;;;;5096537;28;20282;-40
2022/06/25 09:32:03;;;;;;;;;;;25.10;97.40;;;;;;5096605;28;19934;-40
2022/06/25 09:34:33;;;;;;;;;;;25.10;97.40;;;;;;5096512;28;20355;-40
2022/06/25 09:37:14;;;;;;;;;;;25.10;97.40;;;;;;5096427;28;20256;-41
2022/06/25 09:39:40;;;;;;;;;;;25.10;97.40;;;;;;5096686;28;19915;-41
2022/06/25 09:42:05;;;;;;;;;;;25.10;97.30;;;;;;5096502;28;19959;-41
2022/06/25 09:44:31;;;;;;;;;;;25.10;97.30;;;;;;5096200;28;19916;-41
2022/06/25 09:46:57;;;;;;;;;;;25.10;97.30;;;;;;5096601;28;20407;-41
2022/06/25 09:49:23;;;;;;;;;;;25.10;97.30;;;;;;5096625;28;19912;-40
2022/06/25 09:51:57;;;;;;;;;;;25.00;97.30;;;;;;5096404;28;19908;-41
2022/06/25 09:54:23;;;;;;;;;;;25.00;97.30;;;;;;5096149;28;19955;-40
2022/06/25 09:56:48;;;;;;;;;;;25.00;97.30;;;;;;5095630;28;19978;-40
2022/06/25 09:59:14;;;;;;;;;;;25.10;97.30;;;;;;5095948;28;19922;-40
2022/06/25 10:01:40;;;;;;;;;;;25.10;97.30;;;;;;5095482;28;19912;-40
2022/06/25 10:04:06;;;;;;;;;;;25.10;97.30;;;;;;5095819;28;20393;-40
2022/06/25 10:06:33;;;;;;;;;;;25.10;97.30;;;;;;5095782;28;19908;-39
2022/06/25 10:09:02;;;;;;;;;;;25.10;97.30;;;;;;5095611;28;19908;-41
2022/06/25 10:11:28;;;;;;;;;;;25.10;97.30;;;;;;5095802;28;19908;-41
2022/06/25 10:13:54;;;;;;;;;;;25.10;97.30;;;;;;5095539;28;19912;-40
2022/06/25 10:16:20;;;;;;;;;;;25.10;97.30;;;;;;5095780;28;20330;-40
2022/06/25 10:18:47;;;;;;;;;;;25.10;97.40;;;;;;5095449;28;19908;-40
2022/06/25 10:21:13;;;;;;;;;;;25.00;97.30;;;;;;5095331;28;20338;-40
2022/06/25 10:23:39;;;;;;;;;;;25.10;97.30;;;;;;5095669;28;19916;-40
2022/06/25 10:26:04;;;;;;;;;;;25.10;97.30;;;;;;5095743;28;19908;-40
2022/06/25 10:28:32;;;;;;;;;;;25.10;97.30;;;;;;5095129;28;19908;-41
2022/06/25 10:30:58;;;;;;;;;;;25.10;97.30;;;;;;5095604;28;19908;-41
2022/06/25 10:33:26;;;;;;;;;;;25.10;97.40;;;;;;5095595;28;19912;-40
2022/06/25 10:35:52;;;;;;;;;;;25.10;97.40;;;;;;5095248;28;19908;-41
2022/06/25 10:38:25;;;;;;;;;;;25.00;97.30;;;;;;5077291;28;19977;-40
2022/06/25 10:40:53;;;;;;;;;;;25.00;97.30;;;;;;5095276;28;19953;-40
2022/06/25 10:43:54;;;;;;;;;;;25.10;97.40;;;;;;5095339;28;19908;-40
2022/06/25 10:46:29;;;;;;;;;;;25.00;97.30;;;;;;5084018;28;19908;-40
2022/06/25 10:49:01;;;;;;;;;;;25.10;97.40;;;;;;5095134;28;20266;-40
2022/06/25 10:51:30;;;;;;;;;;;25.00;97.30;;;;;;5095238;28;19908;-40
2022/06/25 10:53:57;;;;;;;;;;;25.10;97.40;;;;;;5095043;28;19912;-40
2022/06/25 10:56:22;;;;;;;;;;;25.10;97.40;;;;;;5094958;28;19924;-40
2022/06/25 10:58:48;;;;;;;;;;;25.00;97.30;;;;;;5076573;28;20354;-41
2022/06/25 11:01:18;;;;;;;;;;;25.00;97.30;;;;;;5094986;28;19912;-40
2022/06/25 11:03:44;;;;;;;;;;;25.00;97.30;;;;;;5094516;28;20287;-41
2022/06/25 11:06:23;;;;;;;;;;;25.00;97.30;;;;;;5076390;28;19919;-40
2022/06/25 11:08:49;;;;;;;;;;;25.10;97.30;;;;;;5094507;28;19908;-41
2022/06/25 11:11:30;;;;;;;;;;;25.10;97.30;;;;;;5094493;28;19931;-39
2022/06/25 11:13:56;;;;;;;;;;;25.10;97.30;;;;;;5093529;28;19908;-40
2022/06/25 11:16:22;;;;;;;;;;;25.10;97.30;;;;;;5094040;28;19916;-39
2022/06/25 11:18:49;;;;;;;;;;;25.10;97.30;;;;;;5094459;28;20045;-40
2022/06/25 11:21:37;;;;;;;;;;;25.10;97.30;;;;;;5076284;28;19981;-39
2022/06/25 11:24:11;;;;;;;;;;;25.00;97.30;;;;;;5094584;28;19908;-39
2022/06/25 11:29:22;;;;;;;;;;;25.10;97.50;;;;;;5093991;28;20266;-40
2022/06/25 11:31:49;;;;;;;;;;;25.00;97.30;;;;;;5094079;28;20434;-39
2022/06/25 11:34:21;;;;;;;;;;;25.00;97.30;;;;;;5093859;28;19962;-39
2022/06/25 11:37:01;;;;;;;;;;;25.00;97.30;;;;;;5094211;28;19969;-39
2022/06/25 11:39:28;;;;;;;;;;;25.10;97.30;;;;;;5093861;28;19912;-39
2022/06/25 11:41:53;;;;;;;;;;;25.10;97.30;;;;;;5093883;28;19912;-39
2022/06/25 11:44:19;;;;;;;;;;;25.10;97.30;;;;;;5075735;28;19908;-40
2022/06/25 11:46:45;;;;;;;;;;;25.00;97.20;;;;;;5094382;28;19908;-40
2022/06/25 11:49:12;;;;;;;;;;;25.00;97.20;;;;;;5093951;28;19915;-40
2022/06/25 11:51:47;;;;;;;;;;;25.10;97.30;;;;;;5093527;28;19908;-40
2022/06/25 11:54:13;;;;;;;;;;;25.00;97.30;;;;;;5093792;28;20250;-40
2022/06/25 11:56:45;;;;;;;;;;;25.00;97.20;;;;;;5093627;28;19920;-40
2022/06/25 11:59:11;;;;;;;;;;;25.10;97.30;;;;;;5093772;28;20362;-40
2022/06/25 12:01:36;;;;;;;;;;;25.00;97.20;;;;;;5093960;28;19908;-40
2022/06/25 12:04:02;;;;;;;;;;;25.00;97.20;;;;;;5093867;28;19915;-40
2022/06/25 12:06:27;;;;;;;;;;;25.10;97.20;;;;;;5075423;28;19958;-40
2022/06/25 12:08:53;;;;;;;;;;;25.00;97.10;;;;;;5093348;28;19938;-40
2022/06/25 12:11:19;;;;;;;;;;;25.00;97.10;;;;;;5093356;28;19908;-40
2022/06/25 12:13:45;;;;;;;;;;;25.10;97.10;;;;;;5093820;28;19915;-40
2022/06/25 12:16:10;;;;;;;;;;;25.00;97.20;;;;;;5093722;28;20374;-40
2022/06/25 12:18:37;;;;;;;;;;;25.10;97.20;;;;;;5093867;28;20007;-40
2022/06/25 12:21:02;;;;;;;;;;;25.10;97.20;;;;;;5093758;28;20316;-40
2022/06/25 12:23:28;;;;;;;;;;;25.10;97.20;;;;;;5093601;28;19999;-40
2022/06/25 12:25:53;;;;;;;;;;;25.10;97.10;;;;;;5097236;28;20274;-40
2022/06/25 12:28:35;;;;;;;;;;;25.10;97.10;;;;;;5097613;28;19915;-40
2022/06/25 12:31:08;;;;;;;;;;;25.00;97.10;;;;;;5097842;28;19908;-41
2022/06/25 12:33:33;;;;;;;;;;;25.00;97.10;;;;;;5097889;28;19912;-39
2022/06/25 12:35:59;;;;;;;;;;;25.00;97.10;;;;;;5097501;28;19953;-39
2022/06/25 12:38:24;;;;;;;;;;;25.00;97.10;;;;;;5097421;28;19908;-40
2022/06/25 12:40:51;;;;;;;;;;;25.00;97.10;;;;;;5096921;28;20243;-40
2022/06/25 12:43:17;;;;;;;;;;;25.00;97.10;;;;;;5097425;28;19914;-40
2022/06/25 12:45:44;;;;;;;;;;;25.00;97.20;;;;;;5097033;28;20308;-40
2022/06/25 12:48:10;;;;;;;;;;;25.00;97.20;;;;;;5097218;28;20407;-40
2022/06/25 12:50:39;;;;;;;;;;;25.00;97.20;;;;;;5097465;28;19951;-40
2022/06/25 12:53:14;;;;;;;;;;;25.10;97.20;;;;;;5097335;28;19991;-40
2022/06/25 12:55:43;;;;;;;;;;;25.10;97.20;;;;;;5097086;28;19908;-40
2022/06/25 12:58:10;;;;;;;;;;;25.00;97.10;;;;;;5097096;28;19923;-40
2022/06/25 13:00:37;;;;;;;;;;;25.10;97.20;;;;;;5097055;28;19908;-39
2022/06/25 13:03:06;;;;;;;;;;;25.00;97.20;;;;;;5097551;28;19953;-39
2022/06/25 13:05:32;;;;;;;;;;;25.00;97.10;;;;;;5096646;28;20282;-40
2022/06/25 13:07:57;;;;;;;;;;;25.00;97.10;;;;;;5097121;28;19909;-40
2022/06/25 13:10:23;;;;;;;;;;;25.00;97.20;;;;;;5096836;28;19918;-40
2022/06/25 13:12:53;;;;;;;;;;;25.00;97.10;;;;;;5097028;28;19930;-39
2022/06/25 13:15:19;;;;;;;;;;;25.00;97.00;;;;;;5096886;28;19915;-40
2022/06/25 13:17:45;;;;;;;;;;;25.00;97.10;;;;;;5078646;28;19916;-40
2022/06/25 13:20:11;;;;;;;;;;;25.00;97.00;;;;;;5096856;28;19915;-40
2022/06/25 13:22:38;;;;;;;;;;;25.00;97.00;;;;;;5096847;28;19931;-40
2022/06/25 13:25:06;;;;;;;;;;;25.00;97.00;;;;;;5096712;28;20019;-40
2022/06/25 13:27:33;;;;;;;;;;;25.00;97.10;;;;;;5096570;28;19908;-40
2022/06/25 13:29:59;;;;;;;;;;;25.00;97.10;;;;;;5096649;28;19908;-39
2022/06/25 13:32:24;;;;;;;;;;;25.00;97.10;;;;;;5096178;28;20026;-40
2022/06/25 13:34:50;;;;;;;;;;;25.00;97.10;;;;;;5096430;28;20412;-40
2022/06/25 13:37:16;;;;;;;;;;;25.00;97.10;;;;;;5095102;28;20019;-40
2022/06/25 13:39:42;;;;;;;;;;;25.00;97.00;;;;;;5078079;28;20366;-40
2022/06/25 13:42:07;;;;;;;;;;;25.00;97.00;;;;;;5096148;28;19918;-40
2022/06/25 13:44:36;;;;;;;;;;;25.00;97.00;;;;;;5096410;28;19982;-40
2022/06/25 13:47:02;;;;;;;;;;;25.00;97.00;;;;;;5096319;28;20251;-40
2022/06/25 13:49:27;;;;;;;;;;;25.00;97.00;;;;;;5096093;28;19908;-39
2022/06/25 13:51:53;;;;;;;;;;;25.00;97.00;;;;;;5096444;28;19919;-39
2022/06/25 13:54:18;;;;;;;;;;;25.00;97.00;;;;;;5096596;28;20326;-40
2022/06/25 13:56:44;;;;;;;;;;;25.00;97.00;;;;;;5095456;28;20006;-41
2022/06/25 13:59:09;;;;;;;;;;;25.00;97.00;;;;;;5095802;28;20363;-40
2022/06/25 14:01:35;;;;;;;;;;;25.00;97.00;;;;;;5096067;28;19909;-40
2022/06/25 14:04:01;;;;;;;;;;;25.00;97.00;;;;;;5095826;28;19908;-40
2022/06/25 14:06:27;;;;;;;;;;;25.00;97.00;;;;;;5095980;28;19915;-40
2022/06/25 14:08:54;;;;;;;;;;;25.00;97.00;;;;;;5096064;28;19909;-40
2022/06/25 14:11:19;;;;;;;;;;;25.00;97.00;;;;;;5096172;28;19916;-40
2022/06/25 14:13:45;;;;;;;;;;;25.00;96.90;;;;;;5095762;28;19915;-40
2022/06/25 14:16:11;;;;;;;;;;;25.00;96.90;;;;;;5077712;28;19908;-40
2022/06/25 14:18:36;;;;;;;;;;;25.00;96.90;;;;;;5095908;28;19914;-40
2022/06/25 14:21:03;;;;;;;;;;;25.00;96.90;;;;;;5095539;28;19930;-42
2022/06/25 14:23:29;;;;;;;;;;;25.00;96.90;;;;;;5095632;28;19915;-40